Time;durP1;ratioP1;P1;durP2;ratioP2;P2;SDS_P1;SDS_P2;PMS_P1;PMS_P2;Temp;Humidity;BMP_temperature;BMP_pressure;BME280_temperature;BME280_humidity;BME280_pressure;Samples;Min_cycle;Max_cycle;Signal;HPM_P1;HPM_P2
2023/08/20 00:01:56;;;;;;;163.40;156.68;;;;;;;28.24;44.65;101946.91;5037831;28;20465;-75
2023/08/20 00:04:23;;;;;;;162.02;155.35;;;;;;;28.22;44.30;101952.00;5046759;28;20059;-73
2023/08/20 00:06:49;;;;;;;164.27;157.13;;;;;;;28.19;44.28;101941.56;5044220;28;20453;-72
2023/08/20 00:09:14;;;;;;;161.38;154.65;;;;;;;28.17;44.26;101944.69;5040849;28;20036;-73
2023/08/20 00:11:40;;;;;;;164.18;157.25;;;;;;;28.15;44.33;101946.13;5036914;28;20040;-72
2023/08/20 00:14:05;;;;;;;162.70;156.05;;;;;;;28.13;44.26;101940.13;5042000;28;20029;-72
2023/08/20 00:16:31;;;;;;;158.90;152.20;;;;;;;28.11;44.43;101939.63;5034391;28;20428;-73
2023/08/20 00:18:56;;;;;;;163.82;156.93;;;;;;;28.08;44.29;101943.09;5044584;28;21055;-73
2023/08/20 00:21:23;;;;;;;167.27;160.27;;;;;;;28.05;44.37;101937.03;5034318;28;20029;-72
2023/08/20 00:23:48;;;;;;;161.23;154.43;;;;;;;28.03;44.33;101944.88;5045100;28;20112;-74
2023/08/20 00:26:14;;;;;;;158.82;152.27;;;;;;;28.01;44.23;101957.47;5052436;28;20167;-73
2023/08/20 00:28:39;;;;;;;155.95;149.35;;;;;;;27.99;44.04;101963.34;5041596;28;20045;-74
2023/08/20 00:31:05;;;;;;;167.15;160.15;;;;;;;27.97;44.10;101970.38;5042986;28;20373;-72
2023/08/20 00:33:34;;;;;;;153.57;146.98;;;;;;;27.95;44.36;101969.94;5044569;28;20164;-72
2023/08/20 00:36:00;;;;;;;158.57;152.00;;;;;;;27.91;44.57;101972.53;5051281;28;20132;-73
2023/08/20 00:38:25;;;;;;;163.15;156.45;;;;;;;27.90;44.39;101976.47;5045060;28;20116;-73
2023/08/20 00:40:51;;;;;;;159.32;152.68;;;;;;;27.88;44.23;101977.94;5038087;28;20030;-73
2023/08/20 00:43:16;;;;;;;155.35;148.75;;;;;;;27.87;44.25;101984.63;5042741;28;20040;-72
2023/08/20 00:45:42;;;;;;;159.45;152.82;;;;;;;27.84;44.32;101986.09;5033817;28;20347;-74
2023/08/20 00:48:09;;;;;;;156.10;149.57;;;;;;;27.82;44.26;101985.63;5043290;28;20033;-75
2023/08/20 00:50:34;;;;;;;157.60;150.95;;;;;;;27.80;44.26;102002.59;5034697;28;20057;-73
2023/08/20 00:53:00;;;;;;;159.15;152.15;;;;;;;27.78;44.61;102004.88;5040459;28;20478;-71
2023/08/20 00:55:26;;;;;;;154.18;147.73;;;;;;;27.76;44.55;102000.81;5046991;28;20079;-74
2023/08/20 00:57:51;;;;;;;158.48;151.68;;;;;;;27.74;44.17;102008.63;5040556;28;20464;-72
2023/08/20 01:00:18;;;;;;;161.85;155.13;;;;;;;27.72;44.48;102008.16;5037066;28;20458;-73
2023/08/20 01:02:43;;;;;;;158.68;152.15;;;;;;;27.70;44.17;102005.72;5036577;28;20032;-72
2023/08/20 01:05:11;;;;;;;158.32;151.38;;;;;;;27.69;44.44;102009.63;5044042;28;20086;-73
2023/08/20 01:08:00;;;;;;;151.60;145.25;;;;;;;27.65;44.31;102014.22;5038752;28;20063;-73
2023/08/20 01:10:53;;;;;;;155.40;148.52;;;;;;;27.62;44.39;102021.25;5037400;28;20492;-73
2023/08/20 01:13:19;;;;;;;155.98;149.48;;;;;;;27.59;44.54;102016.34;5045978;28;20033;-73
2023/08/20 01:15:44;;;;;;;155.73;149.23;;;;;;;27.58;44.21;102019.44;5049520;28;20393;-73
2023/08/20 01:18:10;;;;;;;157.15;150.45;;;;;;;27.57;44.70;102013.06;5048575;28;20068;-73
2023/08/20 01:20:52;;;;;;;153.25;146.82;;;;;;;27.55;44.27;102014.56;5036255;28;20772;-72
2023/08/20 01:23:52;;;;;;;151.13;144.73;;;;;;;27.51;44.54;102011.59;5038649;28;20032;-73
2023/08/20 01:26:47;;;;;;;151.88;145.02;;;;;;;27.52;44.28;102007.69;5045866;28;20032;-73
2023/08/20 01:29:13;;;;;;;150.15;143.88;;;;;;;27.48;44.62;102009.47;5043878;28;20072;-73
2023/08/20 01:31:40;;;;;;;159.05;152.02;;;;;;;27.48;44.27;102011.44;5037354;28;20076;-74
2023/08/20 01:34:06;;;;;;;156.07;149.68;;;;;;;27.45;44.51;102015.69;5046315;28;20061;-74
2023/08/20 01:36:31;;;;;;;150.82;144.50;;;;;;;27.44;44.52;102016.81;5050266;28;20063;-72
2023/08/20 01:38:56;;;;;;;151.05;144.75;;;;;;;27.43;44.56;102009.66;5049185;28;20025;-72
2023/08/20 01:41:22;;;;;;;154.73;148.32;;;;;;;27.40;44.83;102021.41;5035833;28;20132;-71
2023/08/20 01:43:47;;;;;;;152.80;146.38;;;;;;;27.38;44.66;102023.69;5035901;28;20053;-74
2023/08/20 01:46:13;;;;;;;155.50;148.95;;;;;;;27.37;44.45;102019.28;5050180;28;20025;-72
2023/08/20 01:48:38;;;;;;;150.18;143.90;;;;;;;27.36;44.44;102025.97;5046006;28;20032;-73
2023/08/20 01:51:04;;;;;;;151.88;145.38;;;;;;;27.34;44.49;102025.47;5036900;28;20117;-72
2023/08/20 01:53:29;;;;;;;146.82;140.70;;;;;;;27.33;44.53;102026.63;5041709;28;20029;-73
2023/08/20 01:55:54;;;;;;;155.23;148.20;;;;;;;27.31;44.70;102026.13;5036307;28;20064;-72
2023/08/20 01:58:20;;;;;;;152.02;145.63;;;;;;;27.30;44.59;102028.09;5042091;28;20100;-72
2023/08/20 02:00:46;;;;;;;149.13;142.85;;;;;;;27.29;44.69;102032.03;5032750;28;20029;-74
2023/08/20 02:03:11;;;;;;;150.23;143.38;;;;;;;27.27;44.48;102025.16;5041070;28;20056;-73
2023/08/20 02:05:37;;;;;;;150.18;143.82;;;;;;;27.26;44.59;102037.38;5039930;28;20053;-73
2023/08/20 02:08:03;;;;;;;148.50;142.23;;;;;;;27.24;44.48;102036.88;5044914;28;20115;-72
2023/08/20 02:10:29;;;;;;;151.23;144.93;;;;;;;27.23;44.44;102033.31;5034331;28;20115;-73
2023/08/20 02:12:54;;;;;;;151.50;144.93;;;;;;;27.21;44.56;102034.78;5040444;28;20507;-73
2023/08/20 02:15:20;;;;;;;158.75;152.15;;;;;;;27.19;44.53;102033.16;5034435;28;20053;-73
2023/08/20 02:17:45;;;;;;;148.50;142.23;;;;;;;27.17;44.59;102043.72;5037732;28;20504;-74
2023/08/20 02:20:10;;;;;;;145.15;139.02;;;;;;;27.16;44.77;102046.81;5043451;28;20033;-72
2023/08/20 02:22:36;;;;;;;146.65;140.13;;;;;;;27.15;44.71;102047.97;5034439;28;20369;-73
2023/08/20 02:25:01;;;;;;;147.02;140.55;;;;;;;27.13;44.45;102045.50;5043690;28;20074;-74
2023/08/20 02:27:27;;;;;;;150.50;144.00;;;;;;;27.11;44.79;102053.31;5050396;28;20035;-72
2023/08/20 02:29:52;;;;;;;148.73;142.38;;;;;;;27.09;44.76;102041.75;5047454;28;20445;-75
2023/08/20 02:32:17;;;;;;;149.93;143.48;;;;;;;27.07;44.92;102041.25;5049852;28;20108;-74
2023/08/20 02:34:43;;;;;;;140.93;134.93;;;;;;;27.06;44.54;102036.84;5044320;28;20051;-72
2023/08/20 02:37:09;;;;;;;144.93;138.77;;;;;;;27.03;44.70;102031.94;5036782;28;20048;-74
2023/08/20 02:39:34;;;;;;;143.40;136.35;;;;;;;27.02;44.61;102035.06;5032123;28;20040;-71
2023/08/20 02:41:59;;;;;;;143.13;137.02;;;;;;;27.01;44.83;102039.75;5031004;28;20040;-72
2023/08/20 02:44:25;;;;;;;143.00;136.70;;;;;;;26.99;44.70;102030.97;5043885;28;20075;-73
2023/08/20 02:46:50;;;;;;;140.70;134.52;;;;;;;26.98;44.73;102032.09;5042089;28;20040;-74
2023/08/20 02:49:15;;;;;;;142.65;136.65;;;;;;;26.96;44.74;102028.81;5037191;28;20082;-72
2023/08/20 02:51:43;;;;;;;140.25;134.25;;;;;;;26.94;44.72;102020.84;5038768;28;20032;-73
2023/08/20 02:54:08;;;;;;;139.30;133.13;;;;;;;26.92;44.76;102033.41;5046670;28;20032;-72
2023/08/20 02:56:34;;;;;;;144.13;137.63;;;;;;;26.90;44.97;102030.13;5045793;28;20291;-72
2023/08/20 02:58:59;;;;;;;138.80;132.90;;;;;;;26.89;44.50;102031.28;5053260;28;20036;-73
2023/08/20 03:01:26;;;;;;;139.95;134.05;;;;;;;26.87;44.82;102022.47;5047706;28;20428;-72
2023/08/20 03:03:51;;;;;;;139.80;133.85;;;;;;;26.86;44.63;102024.44;5039930;28;20032;-74
2023/08/20 03:06:17;;;;;;;143.48;137.27;;;;;;;26.85;44.98;102019.19;5048299;28;20467;-73
2023/08/20 03:08:42;;;;;;;141.88;135.55;;;;;;;26.84;44.83;102014.78;5044164;28;20036;-75
2023/08/20 03:11:08;;;;;;;142.45;136.45;;;;;;;26.82;44.78;102008.75;5035311;28;20453;-73
2023/08/20 03:13:33;;;;;;;138.02;132.10;;;;;;;26.80;44.70;102011.84;5042790;28;20106;-73
2023/08/20 03:15:59;;;;;;;141.63;135.65;;;;;;;26.77;44.96;102015.25;5037645;28;20042;-73
2023/08/20 03:18:24;;;;;;;140.35;134.20;;;;;;;26.76;44.76;102020.00;5042404;28;20065;-72
2023/08/20 03:20:49;;;;;;;144.63;138.63;;;;;;;26.74;44.78;102025.03;5054340;28;20469;-74
2023/08/20 03:23:15;;;;;;;140.35;134.35;;;;;;;26.73;44.75;102025.34;5052743;28;20282;-72
2023/08/20 03:25:40;;;;;;;139.98;133.98;;;;;;;26.71;44.94;102027.63;5050706;28;20041;-73
2023/08/20 03:28:06;;;;;;;139.38;133.20;;;;;;;26.70;44.72;102034.31;5036391;28;20427;-73
2023/08/20 03:30:31;;;;;;;139.57;133.57;;;;;;;26.69;44.55;102029.91;5047508;28;20033;-73
2023/08/20 03:32:57;;;;;;;139.73;133.63;;;;;;;26.67;44.78;102029.41;5039261;28;20442;-73
2023/08/20 03:35:22;;;;;;;140.98;134.93;;;;;;;26.66;44.71;102025.00;5052906;28;20044;-72
2023/08/20 03:37:48;;;;;;;143.95;137.52;;;;;;;26.63;44.72;102023.69;5045634;28;20038;-73
2023/08/20 03:40:13;;;;;;;141.57;135.27;;;;;;;26.62;44.64;102033.16;5043919;28;20030;-73
2023/08/20 03:42:39;;;;;;;139.38;133.38;;;;;;;26.61;44.84;102039.00;5040114;28;20036;-73
2023/08/20 03:45:05;;;;;;;136.93;131.07;;;;;;;26.59;45.07;102033.78;5045398;28;20046;-73
2023/08/20 03:47:30;;;;;;;140.57;134.70;;;;;;;26.57;44.72;102033.28;5040918;28;20033;-74
2023/08/20 03:49:55;;;;;;;141.18;135.15;;;;;;;26.54;44.73;102039.47;5049642;28;20089;-75
2023/08/20 03:52:21;;;;;;;137.35;131.48;;;;;;;26.53;44.84;102035.06;5043688;28;20032;-73
2023/08/20 03:54:46;;;;;;;139.23;133.15;;;;;;;26.51;44.67;102040.91;5049424;28;20040;-74
2023/08/20 03:57:11;;;;;;;138.70;132.40;;;;;;;26.50;44.87;102046.75;5041498;28;20037;-74
2023/08/20 03:59:37;;;;;;;140.60;134.40;;;;;;;26.48;44.86;102049.03;5037653;28;20029;-73
2023/08/20 04:02:02;;;;;;;140.15;133.98;;;;;;;26.47;44.89;102050.16;5042613;28;20033;-71
2023/08/20 04:04:28;;;;;;;137.63;131.80;;;;;;;26.45;44.78;102044.13;5047774;28;20039;-73
2023/08/20 04:06:53;;;;;;;137.90;132.02;;;;;;;26.43;44.75;102047.22;5041525;28;20048;-73
2023/08/20 04:09:19;;;;;;;139.98;134.00;;;;;;;26.41;44.90;102045.88;5052491;28;20039;-73
2023/08/20 04:11:44;;;;;;;137.38;131.57;;;;;;;26.39;45.04;102042.66;5048911;28;20056;-73
2023/08/20 04:14:10;;;;;;;139.75;133.65;;;;;;;26.37;44.88;102045.72;5047449;28;20043;-73
2023/08/20 04:16:35;;;;;;;135.50;129.70;;;;;;;26.34;45.07;102049.94;5041783;28;20164;-74
2023/08/20 04:19:01;;;;;;;135.45;129.55;;;;;;;26.34;44.71;102051.91;5034020;28;20079;-73
2023/08/20 04:21:26;;;;;;;136.75;130.95;;;;;;;26.33;44.91;102056.63;5044266;28;20488;-73
2023/08/20 04:23:51;;;;;;;136.80;130.95;;;;;;;26.31;44.77;102058.09;5048379;28;20269;-74
2023/08/20 04:26:17;;;;;;;138.75;132.75;;;;;;;26.29;44.91;102063.94;5042509;28;20362;-73
2023/08/20 04:28:43;;;;;;;135.98;129.88;;;;;;;26.28;44.80;102058.69;5034604;28;20029;-74
2023/08/20 04:31:08;;;;;;;137.23;131.25;;;;;;;26.26;44.87;102055.47;5039880;28;20029;-74
2023/08/20 04:33:34;;;;;;;141.50;135.50;;;;;;;26.25;44.79;102053.81;5051977;28;20072;-73
2023/08/20 04:35:59;;;;;;;133.35;127.75;;;;;;;26.23;45.00;102059.69;5042174;28;20044;-73
2023/08/20 04:38:24;;;;;;;133.98;128.27;;;;;;;26.22;44.73;102057.22;5051601;28;20071;-72
2023/08/20 04:40:50;;;;;;;135.77;129.98;;;;;;;26.21;44.93;102059.19;5042991;28;20055;-73
2023/08/20 04:43:15;;;;;;;133.43;127.63;;;;;;;26.18;44.89;102058.97;5034730;28;20036;-72
2023/08/20 04:45:41;;;;;;;132.93;127.22;;;;;;;26.17;44.79;102062.88;5033553;28;20040;-72
2023/08/20 04:48:07;;;;;;;132.32;126.60;;;;;;;26.15;44.85;102065.16;5040550;28;20036;-72
2023/08/20 04:50:32;;;;;;;134.45;128.65;;;;;;;26.14;44.94;102069.06;5035804;28;20048;-72
2023/08/20 04:53:00;;;;;;;130.20;124.70;;;;;;;26.11;45.19;102073.28;5034670;28;20079;-72
2023/08/20 04:55:28;;;;;;;132.73;126.93;;;;;;;26.11;44.83;102081.59;5046089;28;20041;-73
2023/08/20 04:57:54;;;;;;;133.55;127.82;;;;;;;26.08;44.67;102071.13;5045374;28;20056;-73
2023/08/20 05:00:20;;;;;;;133.85;128.05;;;;;;;26.07;45.14;102075.03;5044556;28;20025;-75
2023/08/20 05:02:46;;;;;;;130.00;124.40;;;;;;;26.06;44.98;102078.97;5040933;28;20492;-74
2023/08/20 05:05:11;;;;;;;133.63;127.72;;;;;;;26.03;45.02;102077.63;5045606;28;20030;-72
2023/08/20 05:07:37;;;;;;;131.15;125.25;;;;;;;26.03;44.93;102074.03;5045635;28;20341;-73
2023/08/20 05:10:03;;;;;;;132.88;127.15;;;;;;;26.01;45.01;102082.66;5052884;28;20028;-72
2023/08/20 05:12:28;;;;;;;133.30;127.28;;;;;;;26.00;45.13;102081.00;5050518;28;20079;-71
2023/08/20 05:14:54;;;;;;;130.80;125.00;;;;;;;25.99;44.79;102089.66;5040167;28;20036;-73
2023/08/20 05:17:19;;;;;;;131.10;125.32;;;;;;;25.97;45.19;102092.72;5040829;28;20044;-72
2023/08/20 05:19:45;;;;;;;137.73;131.55;;;;;;;25.95;45.15;102089.44;5035799;28;20053;-72
2023/08/20 05:22:11;;;;;;;130.90;125.10;;;;;;;25.93;45.27;102086.19;5034612;28;20033;-72
2023/08/20 05:24:37;;;;;;;129.63;124.00;;;;;;;25.93;44.92;102091.75;5042069;28;21830;-73
2023/08/20 05:27:06;;;;;;;129.15;123.65;;;;;;;25.92;44.92;102092.03;5043320;28;20148;-72
2023/08/20 05:29:31;;;;;;;131.55;125.97;;;;;;;25.90;45.17;102093.19;5032116;28;20304;-72
2023/08/20 05:31:57;;;;;;;129.50;123.90;;;;;;;25.90;45.01;102089.56;5045930;28;20124;-73
2023/08/20 05:34:22;;;;;;;130.70;125.00;;;;;;;25.88;45.17;102089.91;5048230;28;20108;-72
2023/08/20 05:36:47;;;;;;;135.63;129.82;;;;;;;25.87;45.11;102099.31;5048840;28;20037;-72
2023/08/20 05:39:13;;;;;;;128.85;123.25;;;;;;;25.87;44.96;102093.78;5043637;28;20033;-75
2023/08/20 05:41:38;;;;;;;130.98;125.30;;;;;;;25.86;45.37;102103.25;5032755;28;20136;-72
2023/08/20 05:44:04;;;;;;;128.27;122.78;;;;;;;25.85;45.31;102104.34;5039023;28;20040;-71
2023/08/20 05:46:29;;;;;;;130.80;125.22;;;;;;;25.85;45.32;102106.31;5049849;28;20099;-72
2023/08/20 05:48:55;;;;;;;129.55;123.95;;;;;;;25.83;45.31;102103.84;5037876;28;20033;-73
2023/08/20 05:51:20;;;;;;;130.00;124.30;;;;;;;25.83;45.10;102095.53;5048866;28;20041;-73
2023/08/20 05:53:45;;;;;;;129.50;123.90;;;;;;;25.82;44.86;102096.66;5033998;28;20443;-74
2023/08/20 05:56:11;;;;;;;131.82;125.93;;;;;;;25.82;45.28;102093.88;5041317;28;20060;-72
2023/08/20 05:58:36;;;;;;;128.85;123.20;;;;;;;25.83;45.21;102097.47;5044152;28;20044;-76
2023/08/20 06:01:02;;;;;;;130.05;124.50;;;;;;;25.82;44.83;102101.38;5046113;28;20040;-71
2023/08/20 06:03:27;;;;;;;127.88;122.07;;;;;;;25.81;45.26;102089.50;5042629;28;20112;-74
2023/08/20 06:05:52;;;;;;;126.75;121.35;;;;;;;25.81;44.89;102096.97;5040818;28;20073;-74
2023/08/20 06:08:18;;;;;;;132.88;127.00;;;;;;;25.81;45.11;102100.56;5045994;28;20706;-74
2023/08/20 06:10:43;;;;;;;133.57;127.07;;;;;;;25.81;45.22;102088.69;5037361;28;20091;-72
2023/08/20 06:13:09;;;;;;;125.93;120.50;;;;;;;25.81;45.05;102092.25;5042375;28;20033;-73
2023/08/20 06:15:34;;;;;;;126.22;120.55;;;;;;;25.81;45.06;102092.25;5040354;28;20053;-73
2023/08/20 06:18:00;;;;;;;128.15;122.50;;;;;;;25.83;44.96;102089.16;5037979;28;20039;-74
2023/08/20 06:20:25;;;;;;;127.63;121.88;;;;;;;25.83;44.85;102092.78;5040886;28;20056;-75
2023/08/20 06:22:51;;;;;;;129.98;124.32;;;;;;;25.84;45.02;102093.56;5040619;28;20758;-73
2023/08/20 06:25:16;;;;;;;127.95;122.47;;;;;;;25.85;45.31;102095.22;5036651;28;20034;-75
2023/08/20 06:27:42;;;;;;;127.88;122.28;;;;;;;25.85;45.12;102096.03;5046747;28;20121;-74
2023/08/20 06:30:08;;;;;;;129.15;123.55;;;;;;;25.87;44.90;102102.09;5044282;28;20033;-72
2023/08/20 06:32:35;;;;;;;127.47;121.78;;;;;;;25.88;44.71;102097.41;5036183;28;20036;-72
2023/08/20 06:35:00;;;;;;;127.47;121.88;;;;;;;25.88;45.20;102103.75;5043942;28;20055;-73
2023/08/20 06:37:25;;;;;;;127.68;122.07;;;;;;;25.90;44.73;102101.50;5036291;28;20134;-73
2023/08/20 06:39:51;;;;;;;129.07;123.60;;;;;;;25.90;44.70;102104.25;5042399;28;20083;-74
2023/08/20 06:42:16;;;;;;;124.47;119.10;;;;;;;25.92;45.08;102097.56;5039936;28;20385;-72
2023/08/20 06:44:42;;;;;;;130.07;124.32;;;;;;;25.91;44.91;102107.84;5031737;28;20354;-74
2023/08/20 06:47:07;;;;;;;130.05;124.45;;;;;;;25.92;44.93;102103.13;5034221;28;20041;-74
2023/08/20 06:49:32;;;;;;;127.45;121.85;;;;;;;25.92;44.92;102111.41;5041894;28;20238;-73
2023/08/20 06:51:58;;;;;;;127.82;122.32;;;;;;;25.92;44.97;102105.88;5031745;28;20045;-73
2023/08/20 06:54:23;;;;;;;127.45;121.95;;;;;;;25.92;45.03;102108.66;5045941;28;20035;-74
2023/08/20 06:56:48;;;;;;;127.13;121.72;;;;;;;25.93;44.86;102113.88;5036626;28;20060;-73
2023/08/20 06:59:14;;;;;;;124.82;119.38;;;;;;;25.94;44.98;102107.19;5041590;28;20021;-72
2023/08/20 07:01:39;;;;;;;125.75;120.32;;;;;;;25.94;44.86;102109.97;5037314;28;20532;-71
2023/08/20 07:04:05;;;;;;;124.55;119.13;;;;;;;25.94;45.05;102112.75;5046972;28;20050;-73
2023/08/20 07:06:30;;;;;;;127.38;121.78;;;;;;;25.95;45.14;102119.09;5045687;28;20400;-74
2023/08/20 07:08:56;;;;;;;125.63;120.13;;;;;;;25.97;45.03;102116.81;5035012;28;20354;-72
2023/08/20 07:11:22;;;;;;;131.65;125.90;;;;;;;25.96;44.90;102117.97;5041117;28;20029;-74
2023/08/20 07:13:47;;;;;;;124.10;118.80;;;;;;;25.97;45.22;102125.13;5049887;28;20061;-74
2023/08/20 07:16:12;;;;;;;127.40;121.72;;;;;;;25.99;45.01;102120.09;5050238;28;20095;-73
2023/08/20 07:18:38;;;;;;;127.47;121.85;;;;;;;25.99;45.37;102118.16;5042027;28;20499;-74
2023/08/20 07:21:03;;;;;;;130.93;125.28;;;;;;;26.01;45.34;102121.44;5042664;28;20041;-73
2023/08/20 07:23:28;;;;;;;128.82;123.03;;;;;;;26.05;45.48;102127.16;5032868;28;20411;-74
2023/08/20 07:26:09;;;;;;;126.35;120.78;;;;;;;26.06;45.54;102123.25;5042893;28;20037;-73
2023/08/20 07:31:19;;;;;;;125.70;120.28;;;;;;;26.12;45.31;102131.09;5033729;28;20504;-73
2023/08/20 07:33:48;;;;;;;126.53;121.13;;;;;;;26.15;45.59;102126.88;5042172;28;20029;-72
2023/08/20 07:36:14;;;;;;;125.80;120.43;;;;;;;26.18;45.37;102120.72;5041019;28;20120;-74
2023/08/20 07:38:42;;;;;;;126.63;121.20;;;;;;;26.22;45.66;102129.22;5043364;28;20536;-73
2023/08/20 07:41:11;;;;;;;127.50;121.97;;;;;;;26.25;45.80;102134.94;5031466;28;20095;-72
2023/08/20 07:43:37;;;;;;;130.80;125.28;;;;;;;26.29;45.90;102140.69;5040271;28;20033;-73
2023/08/20 07:46:04;;;;;;;131.52;125.63;;;;;;;26.32;45.75;102129.78;5035091;28;20033;-72
2023/08/20 07:48:29;;;;;;;130.38;124.75;;;;;;;26.36;45.77;102135.53;5039826;28;20032;-71
2023/08/20 07:50:54;;;;;;;129.30;123.88;;;;;;;26.40;46.05;102125.41;5041294;28;20039;-74
2023/08/20 07:53:20;;;;;;;128.27;122.82;;;;;;;26.44;45.98;102131.16;5034692;28;20366;-72
2023/08/20 07:55:45;;;;;;;129.82;124.22;;;;;;;26.47;45.83;102131.34;5039634;28;20032;-73
2023/08/20 07:58:11;;;;;;;135.90;130.00;;;;;;;26.52;46.10;102127.63;5049459;28;20377;-73
2023/08/20 08:00:36;;;;;;;135.55;129.60;;;;;;;26.56;46.11;102125.88;5047645;28;20368;-74
2023/08/20 08:03:02;;;;;;;130.63;125.13;;;;;;;26.61;46.34;102136.00;5044010;28;20037;-74
2023/08/20 08:05:28;;;;;;;131.52;125.82;;;;;;;26.65;46.27;102128.69;5034285;28;20029;-72
2023/08/20 08:07:54;;;;;;;130.45;124.97;;;;;;;26.69;46.24;102138.81;5045430;28;20035;-74
2023/08/20 08:10:19;;;;;;;131.75;126.07;;;;;;;26.73;46.27;102139.81;5037768;28;20033;-72
2023/08/20 08:12:45;;;;;;;135.23;129.40;;;;;;;26.79;46.52;102140.50;5039898;28;20031;-73
2023/08/20 08:15:12;;;;;;;135.18;129.40;;;;;;;26.84;46.42;102137.59;5049634;28;20061;-74
2023/08/20 08:17:37;;;;;;;138.57;132.48;;;;;;;26.90;46.14;102132.72;5040471;28;20037;-73
2023/08/20 08:20:03;;;;;;;135.85;129.90;;;;;;;26.95;46.74;102141.69;5035744;28;20035;-72
2023/08/20 08:22:28;;;;;;;135.32;129.55;;;;;;;27.00;46.37;102135.19;5050735;28;20029;-73
2023/08/20 08:24:53;;;;;;;141.38;135.18;;;;;;;27.07;46.42;102145.84;5038194;28;20086;-72
2023/08/20 08:27:19;;;;;;;133.30;127.68;;;;;;;27.13;46.22;102147.31;5043635;28;20492;-72
2023/08/20 08:29:45;;;;;;;137.60;131.77;;;;;;;27.18;46.45;102142.44;5034450;28;20057;-72
2023/08/20 08:32:10;;;;;;;139.73;133.68;;;;;;;27.25;46.54;102139.22;5039270;28;20181;-71
2023/08/20 08:34:35;;;;;;;139.40;133.30;;;;;;;27.32;46.47;102134.03;5041735;28;20477;-71
2023/08/20 08:37:01;;;;;;;139.18;133.27;;;;;;;27.38;46.46;102143.00;5052329;28;20033;-72
2023/08/20 08:39:26;;;;;;;138.30;132.48;;;;;;;27.46;46.55;102139.41;5052867;28;20029;-72
2023/08/20 08:41:59;;;;;;;144.23;138.07;;;;;;;27.53;46.78;102147.28;5038637;28;20037;-72
2023/08/20 08:44:25;;;;;;;144.38;137.98;;;;;;;27.60;46.77;102145.66;5045745;28;20036;-72
2023/08/20 08:46:51;;;;;;;143.77;137.77;;;;;;;27.67;46.70;102145.19;5044033;28;20037;-73
2023/08/20 08:49:17;;;;;;;145.10;138.95;;;;;;;27.74;46.52;102148.25;5051698;28;20029;-72
2023/08/20 08:51:45;;;;;;;146.90;140.30;;;;;;;27.82;46.67;102157.75;5051221;28;20111;-72
2023/08/20 08:54:12;;;;;;;149.82;143.23;;;;;;;27.89;46.46;102152.53;5049957;28;20415;-73
2023/08/20 08:56:37;;;;;;;152.13;145.52;;;;;;;27.95;46.54;102156.00;5041856;28;20737;-72
2023/08/20 08:59:03;;;;;;;151.35;145.10;;;;;;;28.03;46.43;102158.75;5051432;28;20033;-71
2023/08/20 09:01:28;;;;;;;147.48;141.18;;;;;;;28.12;46.52;102163.47;5045083;28;20191;-72
2023/08/20 09:03:54;;;;;;;149.15;142.98;;;;;;;28.18;46.56;102163.00;5033314;28;20369;-72
2023/08/20 09:06:19;;;;;;;157.07;150.63;;;;;;;28.25;46.50;102160.53;5033749;28;20037;-73
2023/08/20 09:08:45;;;;;;;150.45;144.15;;;;;;;28.33;46.39;102164.44;5037057;28;20026;-73
2023/08/20 09:11:11;;;;;;;159.25;152.63;;;;;;;28.41;46.59;102163.59;5033982;28;20511;-71
2023/08/20 09:13:42;;;;;;;153.63;147.13;;;;;;;28.48;46.58;102161.19;5049596;28;20036;-73
2023/08/20 09:16:10;;;;;;;153.10;146.68;;;;;;;28.56;46.58;102153.97;5032305;28;20192;-71
2023/08/20 09:18:42;;;;;;;154.95;148.40;;;;;;;28.63;46.51;102162.59;5044752;28;20077;-72
2023/08/20 09:21:12;;;;;;;155.63;148.93;;;;;;;28.71;46.48;102165.69;5043132;28;20117;-72
2023/08/20 09:23:38;;;;;;;158.57;151.88;;;;;;;28.77;46.52;102170.72;5048445;28;20040;-72
2023/08/20 09:26:05;;;;;;;162.13;155.45;;;;;;;28.82;46.52;102164.97;5045715;28;20033;-72
2023/08/20 09:28:42;;;;;;;156.80;150.35;;;;;;;28.90;46.54;102166.09;5045572;28;20033;-70
2023/08/20 09:31:08;;;;;;;154.73;148.23;;;;;;;28.97;46.49;102166.41;5049597;28;20040;-70
2023/08/20 09:33:33;;;;;;;161.15;154.50;;;;;;;29.03;46.47;102164.25;5049897;28;20378;-70
2023/08/20 09:35:58;;;;;;;161.43;154.70;;;;;;;29.08;46.54;102167.69;5032992;28;20370;-70
2023/08/20 09:38:24;;;;;;;166.27;159.55;;;;;;;29.15;46.42;102166.34;5042472;28;20156;-70
2023/08/20 09:40:56;;;;;;;165.75;158.95;;;;;;;29.21;46.40;102165.84;5045768;28;20167;-71
2023/08/20 09:43:27;;;;;;;161.32;154.65;;;;;;;29.26;46.30;102168.44;5033676;28;20040;-70
2023/08/20 09:45:55;;;;;;;162.48;155.80;;;;;;;29.33;46.51;102165.09;5032234;28;20033;-70
2023/08/20 09:48:20;;;;;;;167.02;160.13;;;;;;;29.37;46.54;102163.28;5037923;28;20033;-70
2023/08/20 09:50:51;;;;;;;172.48;165.25;;;;;;;29.44;46.47;102162.75;5043990;28;20021;-70
2023/08/20 09:53:33;;;;;;;164.90;158.18;;;;;;;29.49;46.50;102162.56;5036511;28;20029;-70
2023/08/20 09:56:08;;;;;;;172.95;165.85;;;;;;;29.55;46.08;102163.97;5039778;28;20051;-70
2023/08/20 09:58:35;;;;;;;173.40;166.48;;;;;;;29.60;46.52;102172.13;5031768;28;20041;-70
2023/08/20 10:01:01;;;;;;;168.27;161.18;;;;;;;29.65;46.17;102173.91;5032093;28;20033;-70
2023/08/20 10:03:26;;;;;;;170.75;163.75;;;;;;;29.68;46.25;102167.69;5047782;28;20051;-70
2023/08/20 10:05:53;;;;;;;175.60;168.50;;;;;;;29.74;46.36;102169.94;5035289;28;20032;-70
2023/08/20 10:08:19;;;;;;;171.90;164.50;;;;;;;29.80;46.15;102169.72;5043469;28;20079;-70
2023/08/20 10:10:45;;;;;;;173.15;166.15;;;;;;;29.85;46.26;102177.88;5033783;28;20487;-70
2023/08/20 10:13:13;;;;;;;181.95;174.48;;;;;;;29.90;46.29;102174.88;5038271;28;20025;-70
2023/08/20 10:15:39;;;;;;;174.13;167.00;;;;;;;29.94;46.51;102171.09;5031910;28;20041;-70
2023/08/20 10:18:04;;;;;;;177.00;169.90;;;;;;;29.98;46.40;102166.44;5050227;28;20287;-71
2023/08/20 10:20:31;;;;;;;172.20;165.27;;;;;;;30.05;46.39;102170.66;5050442;28;20036;-71
2023/08/20 10:23:02;;;;;;;178.90;171.70;;;;;;;30.09;46.29;102172.44;5046809;28;20442;-71
2023/08/20 10:25:29;;;;;;;174.02;167.02;;;;;;;30.14;46.70;102168.63;5039686;28;20083;-71
2023/08/20 10:28:10;;;;;;;174.18;167.07;;;;;;;30.18;46.56;102170.34;5041591;28;20080;-71
2023/08/20 10:30:35;;;;;;;181.90;174.68;;;;;;;30.23;46.48;102168.53;5035217;28;20040;-71
2023/08/20 10:33:03;;;;;;;176.80;169.70;;;;;;;30.27;46.34;102172.31;5047047;28;20025;-70
2023/08/20 10:35:49;;;;;;;177.00;169.70;;;;;;;30.29;46.22;102168.00;5040053;28;20024;-70
2023/08/20 10:38:16;;;;;;;175.80;168.70;;;;;;;30.36;46.21;102171.03;5042027;28;20033;-70
2023/08/20 10:40:55;;;;;;;176.50;169.35;;;;;;;30.39;46.20;102169.53;5037294;28;20056;-70
2023/08/20 10:43:31;;;;;;;178.40;171.10;;;;;;;30.41;46.59;102165.22;5042464;28;20064;-70
2023/08/20 10:46:25;;;;;;;185.07;177.68;;;;;;;30.44;46.75;102169.31;5031886;28;20486;-70
2023/08/20 10:48:56;;;;;;;184.77;177.43;;;;;;;30.49;46.46;102171.91;5044967;28;20112;-70
2023/08/20 10:51:27;;;;;;;182.02;174.68;;;;;;;30.53;46.51;102172.03;5034085;28;20159;-70
2023/08/20 10:54:01;;;;;;;181.75;174.45;;;;;;;30.55;46.50;102167.72;5045861;28;20025;-71
2023/08/20 10:56:47;;;;;;;179.13;172.00;;;;;;;30.58;46.18;102169.00;5038331;28;20154;-70